Moncton, Canada
Current Conditions -  °F | °C
As of 2:19 PM on Thursday 27 Nov 2014 (Local Time) from CYQM Reporting Station
Light Snow Light Snow  
Wind Chill: 15°   Ceiling: 1800
Heat Index: 28°   Visibility: 8mi
Dew Point: 25°   Wind: 20mph
Humidity: 86%   Direction: 330°NNW
Pressure: 29.67"   Gusts: 30mph
Location:  46.09°N, 64.78°W
Report Text: CYQM 271819Z 33017G26KT 8SM -SN SCT009 BKN018 OVC030 M02/M04 A2967 RMK SF3SC4SC1 PRESRR SLP051
Loading
Personal Weather Stations






























Interactive Weather Map New forecast layout! Learn more

10-Day Weather Forecast

Advertisements
Track Severe Weather on mobile